Tekirdag, Turkey
Current Conditions -  °F | °C
As of 9:50 PM on Sunday 21 Dec 2014 (Local Time) from LTBU Reporting Station
Broken Clouds Broken Clouds  
Wind Chill: 35°   Ceiling: 10000
Heat Index: 41°   Visibility: 6mi
Dew Point: 32°   Wind: 10mph
Humidity: 70%   Direction: 300°WNW
Pressure: 30.24"   Gusts: NA
Location:  40.98°N, 27.52°E
Report Text: LTBU 211950Z 30009KT 9999 SCT030 BKN100 05/00 Q1024
Loading
Personal Weather Stations






























Interactive Weather Map New forecast layout! Learn more

10-Day Weather Forecast

Advertisements
Track Severe Weather on mobile